Time;durP1;ratioP1;P1;durP2;ratioP2;P2;SDS_P1;SDS_P2;PMS_P1;PMS_P2;Temp;Humidity;BMP_temperature;BMP_pressure;BME280_temperature;BME280_humidity;BME280_pressure;Samples;Min_cycle;Max_cycle;Signal;HPM_P1;HPM_P2
2023/08/26 00:01:46;;;;;;;18.17;15.82;;;;;;;24.28;100.00;95724.72;6190696;23;20091;-84
2023/08/26 00:04:12;;;;;;;19.30;15.95;;;;;;;24.34;100.00;95731.75;6191295;23;20091;-83
2023/08/26 00:06:37;;;;;;;17.67;15.45;;;;;;;24.57;100.00;95735.97;6191361;23;20008;-83
2023/08/26 00:09:03;;;;;;;17.02;15.20;;;;;;;24.55;100.00;95717.44;6191219;23;20011;-83
2023/08/26 00:11:29;;;;;;;18.25;16.30;;;;;;;24.62;100.00;95712.63;6191662;23;20027;-83
2023/08/26 00:13:55;;;;;;;18.50;15.25;;;;;;;24.62;100.00;95715.31;6191617;23;20004;-83
2023/08/26 00:16:21;;;;;;;17.08;14.02;;;;;;;24.78;100.00;95699.25;6216023;23;20038;-84
2023/08/26 00:18:49;;;;;;;18.20;14.77;;;;;;;24.56;100.00;95675.22;6191342;23;20328;-83
2023/08/26 00:21:16;;;;;;;15.68;14.07;;;;;;;24.73;100.00;95675.03;6190669;23;20011;-83
2023/08/26 00:23:41;;;;;;;20.80;15.75;;;;;;;24.76;100.00;95679.88;6191396;23;20103;-83
2023/08/26 00:26:09;;;;;;;16.70;14.13;;;;;;;24.88;100.00;95699.28;6190679;23;20441;-83
2023/08/26 00:28:34;;;;;;;16.75;14.95;;;;;;;24.39;100.00;95726.44;6215824;23;20091;-84
2023/08/26 00:31:00;;;;;;;17.85;15.27;;;;;;;24.25;100.00;95744.06;6189984;23;20318;-83
2023/08/26 00:33:26;;;;;;;16.85;14.90;;;;;;;24.42;100.00;95755.50;6191593;23;20650;-84
2023/08/26 00:35:52;;;;;;;19.27;14.93;;;;;;;24.09;100.00;95754.69;6191181;23;20015;-84
2023/08/26 00:38:18;;;;;;;17.15;14.35;;;;;;;23.70;100.00;95737.94;6217221;23;20016;-83
2023/08/26 00:40:43;;;;;;;19.08;13.50;;;;;;;23.73;100.00;95729.38;6191393;23;20008;-84
2023/08/26 00:43:09;;;;;;;19.55;14.75;;;;;;;24.01;100.00;95741.75;6191088;23;20736;-85
2023/08/26 00:45:41;;;;;;;17.00;13.95;;;;;;;23.55;100.00;95733.22;6191051;23;20043;-85
2023/08/26 00:48:08;;;;;;;15.63;13.65;;;;;;;23.17;100.00;95718.88;6190539;23;20436;-84
2023/08/26 00:50:39;;;;;;;17.77;13.52;;;;;;;23.14;100.00;95710.50;6190910;23;20027;-84
2023/08/26 00:53:06;;;;;;;17.95;14.68;;;;;;;23.20;100.00;95702.25;6216286;23;20004;-83
2023/08/26 00:55:33;;;;;;;18.52;15.32;;;;;;;23.06;100.00;95717.13;6191119;23;20436;-84
2023/08/26 00:57:58;;;;;;;20.40;15.15;;;;;;;23.15;100.00;95736.28;6214956;23;20012;-84
2023/08/26 01:00:25;;;;;;;19.83;17.73;;;;;;;23.63;100.00;95748.06;6188878;23;20436;-84
2023/08/26 01:02:50;;;;;;;19.55;16.42;;;;;;;23.61;100.00;95745.63;6189511;23;20065;-84
2023/08/26 01:05:17;;;;;;;17.88;15.98;;;;;;;23.75;100.00;95738.00;6190531;23;20082;-83
2023/08/26 01:07:45;;;;;;;17.33;15.35;;;;;;;23.64;100.00;95736.25;6190627;23;20322;-84
2023/08/26 01:10:11;;;;;;;18.30;16.38;;;;;;;24.10;100.00;95748.25;6190340;23;20004;-84
2023/08/26 01:12:55;;;;;;;21.55;17.35;;;;;;;23.90;100.00;95761.50;6190493;23;20394;-83
2023/08/26 01:15:23;;;;;;;18.63;16.08;;;;;;;23.55;100.00;95756.56;6190597;23;20087;-83
2023/08/26 01:17:49;;;;;;;20.60;14.73;;;;;;;23.61;100.00;95744.81;6190879;23;20000;-84
2023/08/26 01:20:16;;;;;;;15.98;14.27;;;;;;;23.95;100.00;95723.97;6190093;23;20056;-84
2023/08/26 01:22:50;;;;;;;19.92;14.25;;;;;;;24.04;100.00;95726.97;6190640;23;20455;-84
2023/08/26 01:25:16;;;;;;;16.15;14.10;;;;;;;23.78;100.00;95724.09;6216951;23;20015;-83
2023/08/26 01:27:42;;;;;;;17.95;13.68;;;;;;;23.69;100.00;95729.09;6190969;23;20012;-83
2023/08/26 01:30:10;;;;;;;14.10;12.65;;;;;;;23.89;100.00;95725.78;6190296;23;20008;-83
2023/08/26 01:32:36;;;;;;;16.35;13.98;;;;;;;24.22;100.00;95724.69;6190557;23;20012;-83
2023/08/26 01:35:07;;;;;;;16.80;13.27;;;;;;;24.28;100.00;95727.41;6190388;23;20054;-83
2023/08/26 01:37:35;;;;;;;16.77;12.82;;;;;;;24.02;100.00;95735.28;6189834;23;20000;-83
2023/08/26 01:40:05;;;;;;;16.48;12.35;;;;;;;24.10;100.00;95737.50;6215764;23;20066;-83
2023/08/26 01:42:32;;;;;;;17.05;13.75;;;;;;;24.12;100.00;95748.81;6190477;23;20000;-83
2023/08/26 01:44:58;;;;;;;16.63;11.65;;;;;;;24.09;100.00;95767.31;6215025;23;20391;-83
2023/08/26 01:47:25;;;;;;;15.40;11.00;;;;;;;23.85;100.00;95789.13;6214763;23;20019;-83
2023/08/26 01:49:50;;;;;;;13.93;11.15;;;;;;;23.65;100.00;95794.25;6190898;23;20406;-83
2023/08/26 01:52:16;;;;;;;17.65;11.63;;;;;;;23.36;100.00;95778.38;6190479;23;20012;-82
2023/08/26 01:54:49;;;;;;;12.05;10.65;;;;;;;23.58;100.00;95794.47;6190520;23;20080;-83
2023/08/26 01:57:15;;;;;;;16.73;11.80;;;;;;;23.02;100.00;95786.53;6190147;23;20000;-83
2023/08/26 01:59:42;;;;;;;14.52;11.48;;;;;;;23.39;100.00;95782.44;6190302;23;20032;-83
2023/08/26 02:02:07;;;;;;;14.65;10.70;;;;;;;23.43;100.00;95788.91;6191330;23;20043;-83
2023/08/26 02:04:33;;;;;;;11.20;9.52;;;;;;;22.98;100.00;95796.16;6217616;23;20000;-84
2023/08/26 02:06:58;;;;;;;16.85;9.60;;;;;;;23.18;100.00;95792.91;6192722;23;20004;-84
2023/08/26 02:09:24;;;;;;;11.63;7.95;;;;;;;23.26;100.00;95795.16;6217703;23;20008;-83
2023/08/26 02:11:51;;;;;;;11.57;7.75;;;;;;;23.34;100.00;95811.88;6192077;23;20341;-83
2023/08/26 02:14:17;;;;;;;12.38;7.82;;;;;;;23.06;100.00;95808.31;6193194;23;19996;-83
2023/08/26 02:16:43;;;;;;;13.85;7.43;;;;;;;23.28;100.00;95811.81;6217456;23;20004;-82
2023/08/26 02:19:08;;;;;;;13.65;8.13;;;;;;;22.97;100.00;95823.19;6191738;23;20424;-82
2023/08/26 02:21:34;;;;;;;14.68;8.20;;;;;;;23.01;100.00;95816.31;6191737;23;20050;-81
2023/08/26 02:24:00;;;;;;;11.15;6.93;;;;;;;22.77;100.00;95810.28;6242391;23;20063;-82
2023/08/26 02:26:26;;;;;;;11.60;7.03;;;;;;;22.81;100.00;95806.06;6242952;23;20011;-82
2023/08/26 02:28:52;;;;;;;9.35;6.78;;;;;;;22.40;100.00;95831.44;6192836;23;20008;-83
2023/08/26 02:31:17;;;;;;;13.70;7.80;;;;;;;22.52;100.00;95829.50;6190709;23;20000;-82
2023/08/26 02:33:44;;;;;;;9.70;6.97;;;;;;;22.71;100.00;95832.75;6216143;23;20134;-83
2023/08/26 02:36:10;;;;;;;9.07;7.30;;;;;;;22.51;100.00;95833.22;6191128;23;20004;-82
2023/08/26 02:38:36;;;;;;;8.45;6.95;;;;;;;22.74;100.00;95827.69;6192074;23;20011;-81
2023/08/26 02:41:02;;;;;;;10.90;7.15;;;;;;;22.48;100.00;95823.81;6186453;23;20012;-83
2023/08/26 02:43:28;;;;;;;8.38;7.07;;;;;;;22.63;100.00;95817.84;6191113;23;20016;-83
2023/08/26 02:45:54;;;;;;;10.65;6.70;;;;;;;22.40;100.00;95812.69;6191626;23;20004;-82
2023/08/26 02:48:23;;;;;;;9.98;6.50;;;;;;;22.62;100.00;95808.22;6191027;23;20019;-82
2023/08/26 02:50:59;;;;;;;10.38;6.95;;;;;;;22.58;100.00;95810.56;6190234;23;20066;-83
2023/08/26 02:53:26;;;;;;;12.05;6.80;;;;;;;22.40;100.00;95810.84;6191726;23;20007;-82
2023/08/26 02:55:53;;;;;;;11.52;7.07;;;;;;;22.54;100.00;95811.31;6191552;23;20031;-82
2023/08/26 02:58:19;;;;;;;8.43;6.28;;;;;;;22.33;100.00;95811.00;6192195;23;20408;-82
2023/08/26 03:00:45;;;;;;;7.28;6.05;;;;;;;22.56;100.00;95809.19;6191111;23;20050;-83
2023/08/26 03:03:11;;;;;;;9.00;5.90;;;;;;;22.44;100.00;95819.19;6215280;23;20359;-83
2023/08/26 03:05:36;;;;;;;9.00;5.22;;;;;;;22.50;100.00;95819.03;6189831;23;20054;-82
2023/08/26 03:08:02;;;;;;;9.32;5.97;;;;;;;22.66;100.00;95822.72;6190200;23;20007;-82
2023/08/26 03:10:28;;;;;;;10.13;6.35;;;;;;;22.47;100.00;95830.25;6214477;23;20055;-83
2023/08/26 03:12:56;;;;;;;9.93;5.90;;;;;;;22.74;100.00;95838.41;6191276;23;20008;-82
2023/08/26 03:15:29;;;;;;;8.55;5.55;;;;;;;22.92;100.00;95831.16;6190483;23;20014;-82
2023/08/26 03:17:56;;;;;;;9.95;6.22;;;;;;;22.58;100.00;95826.66;6191559;23;20007;-83
2023/08/26 03:20:23;;;;;;;10.90;5.60;;;;;;;22.86;100.00;95818.72;6189620;23;20007;-83
2023/08/26 03:22:49;;;;;;;8.13;5.82;;;;;;;22.62;100.00;95818.13;6191109;23;20054;-83
2023/08/26 03:25:15;;;;;;;9.90;5.28;;;;;;;22.78;100.00;95811.94;6216456;23;20460;-83
2023/08/26 03:27:41;;;;;;;10.05;5.90;;;;;;;23.06;100.00;95811.00;6191734;23;19996;-83
2023/08/26 03:30:08;;;;;;;9.25;6.15;;;;;;;22.99;100.00;95823.78;6190875;23;20012;-83
2023/08/26 03:32:33;;;;;;;10.18;6.32;;;;;;;22.61;100.00;95824.53;6190083;23;20011;-82
2023/08/26 03:35:12;;;;;;;12.00;5.55;;;;;;;22.87;100.00;95815.81;6215097;23;20095;-81
2023/08/26 03:37:38;;;;;;;10.52;5.40;;;;;;;22.99;100.00;95802.31;6191214;23;20016;-82
2023/08/26 03:40:08;;;;;;;9.63;5.30;;;;;;;22.85;100.00;95807.19;6191326;23;20004;-82
2023/08/26 03:42:35;;;;;;;9.73;4.95;;;;;;;22.56;100.00;95817.22;6214290;23;20107;-82
2023/08/26 03:45:01;;;;;;;10.05;5.65;;;;;;;22.39;100.00;95822.59;6190457;23;20015;-83
2023/08/26 03:47:27;;;;;;;10.25;5.28;;;;;;;22.23;100.00;95832.25;6215162;23;20004;-83
2023/08/26 03:49:53;;;;;;;7.85;5.05;;;;;;;22.48;100.00;95828.38;6190575;23;20008;-83
2023/08/26 03:52:18;;;;;;;8.05;5.93;;;;;;;22.72;100.00;95829.78;6190818;23;20008;-83
2023/08/26 03:54:44;;;;;;;9.20;6.70;;;;;;;22.71;100.00;95843.47;6191396;23;20016;-83
2023/08/26 03:57:09;;;;;;;7.65;5.68;;;;;;;22.47;100.00;95840.16;6190454;23;20130;-83
2023/08/26 03:59:35;;;;;;;7.72;5.45;;;;;;;22.23;100.00;95851.00;6215390;23;20014;-83
2023/08/26 04:02:01;;;;;;;7.47;5.43;;;;;;;21.92;100.00;95857.63;6189326;23;20004;-82
2023/08/26 04:04:27;;;;;;;9.02;7.10;;;;;;;22.24;100.00;95852.63;6215839;23;20004;-83
2023/08/26 04:06:53;;;;;;;10.07;6.43;;;;;;;22.49;100.00;95851.41;6215575;23;20000;-82
2023/08/26 04:09:19;;;;;;;7.90;5.93;;;;;;;22.19;100.00;95852.53;6216000;23;20011;-82
2023/08/26 04:11:46;;;;;;;8.55;6.05;;;;;;;22.27;100.00;95854.81;6190458;23;20429;-82
2023/08/26 04:14:11;;;;;;;9.13;7.18;;;;;;;22.10;100.00;95854.78;6215911;23;20000;-82
2023/08/26 04:16:37;;;;;;;8.90;6.65;;;;;;;22.05;100.00;95854.66;6189895;23;19992;-82
2023/08/26 04:19:02;;;;;;;9.75;7.18;;;;;;;22.21;100.00;95855.78;6189568;23;20008;-82
2023/08/26 04:21:28;;;;;;;10.32;7.30;;;;;;;21.87;100.00;95860.25;6215368;23;20003;-83
2023/08/26 04:23:58;;;;;;;10.20;7.15;;;;;;;22.29;100.00;95858.06;6215124;23;20000;-82
2023/08/26 04:26:23;;;;;;;9.10;7.22;;;;;;;22.43;100.00;95858.53;6189840;23;20043;-83
2023/08/26 04:28:49;;;;;;;9.55;8.15;;;;;;;22.21;100.00;95858.47;6241678;23;20440;-83
2023/08/26 04:31:15;;;;;;;10.52;7.68;;;;;;;21.96;100.00;95864.13;6189896;23;20464;-82
2023/08/26 04:33:43;;;;;;;11.65;8.68;;;;;;;22.11;100.00;95871.66;6189474;23;20007;-82
2023/08/26 04:36:09;;;;;;;10.77;7.93;;;;;;;22.11;100.00;95877.81;6190553;23;20012;-82
2023/08/26 04:38:40;;;;;;;10.52;8.18;;;;;;;22.07;100.00;95879.34;6214786;23;20008;-82
2023/08/26 04:41:06;;;;;;;10.35;7.60;;;;;;;22.21;100.00;95893.28;6188907;23;20008;-82
2023/08/26 04:43:32;;;;;;;10.23;8.13;;;;;;;22.11;100.00;95890.41;6190134;23;20008;-82
2023/08/26 04:45:58;;;;;;;11.63;8.70;;;;;;;22.07;100.00;95897.28;6215040;23;20069;-83
2023/08/26 04:48:24;;;;;;;10.18;8.45;;;;;;;21.97;100.00;95899.78;6190666;23;20016;-83
2023/08/26 04:50:50;;;;;;;12.20;9.30;;;;;;;22.04;100.00;95897.75;6189082;23;20004;-83
2023/08/26 04:53:16;;;;;;;10.82;7.95;;;;;;;22.24;100.00;95908.88;6215346;23;20031;-82
2023/08/26 04:55:41;;;;;;;12.70;9.63;;;;;;;22.14;100.00;95908.66;6189527;23;20004;-82
2023/08/26 04:58:14;;;;;;;11.95;9.05;;;;;;;22.14;100.00;95914.03;6215115;23;20413;-83
2023/08/26 05:00:43;;;;;;;10.43;9.20;;;;;;;22.15;100.00;95914.81;6213788;23;20015;-83
2023/08/26 05:03:09;;;;;;;11.75;9.48;;;;;;;22.11;100.00;95915.31;6190743;23;20008;-83
2023/08/26 05:05:35;;;;;;;14.35;9.45;;;;;;;22.11;100.00;95927.88;6189597;23;20027;-83
2023/08/26 05:08:13;;;;;;;14.70;9.88;;;;;;;22.20;100.00;95934.53;6214300;23;20428;-83
2023/08/26 05:10:39;;;;;;;11.32;9.55;;;;;;;22.09;100.00;95925.44;6215663;23;20492;-83
2023/08/26 05:13:05;;;;;;;13.30;10.15;;;;;;;22.27;100.00;95921.78;6189763;23;20510;-83
2023/08/26 05:15:32;;;;;;;12.88;9.05;;;;;;;22.54;100.00;95929.22;6189996;23;20003;-83
2023/08/26 05:18:03;;;;;;;11.65;9.20;;;;;;;22.35;100.00;95929.44;6189946;23;20000;-82
2023/08/26 05:20:29;;;;;;;12.82;8.80;;;;;;;22.58;100.00;95927.69;6189079;23;20016;-82
2023/08/26 05:22:56;;;;;;;18.75;9.38;;;;;;;22.51;100.00;95921.66;6189310;23;20464;-81
2023/08/26 05:25:21;;;;;;;11.15;8.77;;;;;;;22.29;100.00;95922.34;6213857;23;20435;-82
2023/08/26 05:27:47;;;;;;;10.63;9.07;;;;;;;22.43;100.00;95922.03;6189924;23;20087;-81
2023/08/26 05:30:17;;;;;;;16.80;10.57;;;;;;;22.39;100.00;95927.06;6189926;23;20008;-81
2023/08/26 05:32:47;;;;;;;15.48;9.85;;;;;;;22.37;100.00;95918.47;6190009;23;20138;-81
2023/08/26 05:35:13;;;;;;;14.68;9.38;;;;;;;22.59;100.00;95899.81;6188607;23;20007;-81
2023/08/26 05:37:50;;;;;;;12.07;9.65;;;;;;;22.76;100.00;95897.13;6188800;23;20019;-81
2023/08/26 05:40:17;;;;;;;12.45;9.05;;;;;;;22.75;100.00;95899.00;6189345;23;20016;-80
2023/08/26 05:42:43;;;;;;;11.10;8.80;;;;;;;22.72;100.00;95904.84;6188565;23;20090;-81
2023/08/26 05:45:09;;;;;;;12.85;8.95;;;;;;;22.90;100.00;95901.09;6214132;23;20024;-81
2023/08/26 05:47:35;;;;;;;13.82;9.18;;;;;;;23.07;100.00;95909.16;6189483;23;20007;-81
2023/08/26 05:50:01;;;;;;;11.30;8.95;;;;;;;22.62;100.00;95906.56;6189173;23;20019;-81
2023/08/26 05:52:27;;;;;;;12.57;9.35;;;;;;;22.76;100.00;95927.44;6189044;23;20003;-81
2023/08/26 05:54:52;;;;;;;12.18;9.13;;;;;;;22.94;100.00;95928.31;6189099;23;20404;-81
2023/08/26 05:57:35;;;;;;;16.02;9.32;;;;;;;23.03;100.00;95922.25;6186671;23;20015;-81
2023/08/26 06:00:01;;;;;;;10.50;8.55;;;;;;;23.46;100.00;95928.75;6189311;23;20463;-82
2023/08/26 06:02:26;;;;;;;12.32;9.35;;;;;;;23.30;100.00;95935.78;6189213;23;20008;-82
2023/08/26 06:04:52;;;;;;;12.38;9.15;;;;;;;23.50;100.00;95943.31;6189247;23;20011;-82
2023/08/26 06:07:20;;;;;;;10.77;9.38;;;;;;;22.95;100.00;95949.50;6213968;23;20066;-82
2023/08/26 06:09:46;;;;;;;12.23;8.27;;;;;;;23.21;100.00;95942.66;6189878;23;20019;-81
2023/08/26 06:12:11;;;;;;;11.80;8.75;;;;;;;23.00;100.00;95946.91;6188999;23;20007;-81
2023/08/26 06:14:41;;;;;;;11.07;7.82;;;;;;;23.18;100.00;95932.41;6189557;23;20008;-81
2023/08/26 06:17:06;;;;;;;11.40;7.65;;;;;;;23.13;100.00;95937.69;6189453;23;20511;-82
2023/08/26 06:19:32;;;;;;;14.15;8.80;;;;;;;23.62;100.00;95928.97;6187567;23;20008;-82
2023/08/26 06:22:10;;;;;;;11.52;8.00;;;;;;;23.60;100.00;95937.25;6188300;23;20007;-82
2023/08/26 06:24:43;;;;;;;11.38;8.23;;;;;;;23.72;100.00;95932.63;6189389;23;20012;-81
2023/08/26 06:27:16;;;;;;;11.90;7.50;;;;;;;23.98;100.00;95933.75;6214037;23;20050;-81
2023/08/26 06:29:53;;;;;;;13.18;7.22;;;;;;;24.23;100.00;95932.41;6214952;23;20397;-82
2023/08/26 06:32:21;;;;;;;10.68;6.28;;;;;;;24.67;100.00;95930.44;6213279;23;20024;-82
2023/08/26 06:34:48;;;;;;;8.98;5.63;;;;;;;25.12;100.00;95926.53;6189385;23;20020;-82
2023/08/26 06:37:15;;;;;;;9.57;6.25;;;;;;;25.46;100.00;95926.19;6189113;23;20448;-82
2023/08/26 06:39:42;;;;;;;11.15;6.68;;;;;;;25.54;100.00;95919.50;6188456;23;20000;-82
2023/08/26 06:42:11;;;;;;;12.55;5.47;;;;;;;25.58;100.00;95929.47;6187549;23;20008;-82
2023/08/26 06:44:46;;;;;;;10.68;5.63;;;;;;;25.93;100.00;95922.66;6188394;23;20008;-82
2023/08/26 06:47:11;;;;;;;9.52;5.65;;;;;;;25.78;100.00;95936.03;6187207;23;20000;-82
2023/08/26 06:49:38;;;;;;;12.50;6.25;;;;;;;25.67;100.00;95942.44;6187788;23;20083;-82
2023/08/26 06:52:11;;;;;;;13.10;5.65;;;;;;;25.72;100.00;95948.69;6188630;23;20008;-82
2023/08/26 06:54:40;;;;;;;11.02;4.93;;;;;;;25.51;100.00;95942.34;6188614;23;20272;-82
2023/08/26 06:57:06;;;;;;;9.18;5.00;;;;;;;25.20;100.00;95941.38;6214252;23;20011;-82
2023/08/26 06:59:33;;;;;;;9.18;5.60;;;;;;;24.48;100.00;95942.66;6188536;23;20716;-82
2023/08/26 07:01:58;;;;;;;12.00;5.35;;;;;;;24.69;100.00;95938.25;6212982;23;20015;-82
2023/08/26 07:04:24;;;;;;;8.65;4.93;;;;;;;24.82;100.00;95942.41;6188553;23;20004;-82
2023/08/26 07:06:57;;;;;;;10.65;5.57;;;;;;;24.80;100.00;95948.03;6188256;23;20092;-82
2023/08/26 07:09:22;;;;;;;9.10;5.53;;;;;;;24.82;100.00;95945.91;6188690;23;20102;-82
2023/08/26 07:11:48;;;;;;;12.02;5.93;;;;;;;24.85;100.00;95963.41;6189304;23;20012;-82
2023/08/26 07:14:14;;;;;;;9.98;5.40;;;;;;;24.36;100.00;95960.75;6189041;23;20008;-81
2023/08/26 07:16:57;;;;;;;11.60;5.43;;;;;;;24.58;100.00;95963.41;6188646;23;20337;-81
2023/08/26 07:19:22;;;;;;;13.02;5.38;;;;;;;24.34;100.00;95960.19;6188139;23;20012;-81
2023/08/26 07:21:48;;;;;;;8.27;5.40;;;;;;;24.15;100.00;95968.59;6213210;23;20456;-81
2023/08/26 07:24:15;;;;;;;10.43;5.72;;;;;;;23.97;100.00;95958.16;6213227;23;20008;-81
2023/08/26 07:26:41;;;;;;;10.65;5.68;;;;;;;24.08;100.00;95949.19;6188211;23;20093;-81
2023/08/26 07:29:07;;;;;;;9.20;5.10;;;;;;;24.41;100.00;95947.38;6187918;23;20352;-81
2023/08/26 07:31:32;;;;;;;7.15;4.72;;;;;;;24.20;100.00;95947.16;6212989;23;20000;-82
2023/08/26 07:33:58;;;;;;;12.77;5.88;;;;;;;24.89;100.00;95948.38;6212580;23;20012;-80
2023/08/26 07:36:24;;;;;;;9.65;5.05;;;;;;;25.00;100.00;95933.94;6188492;23;20044;-81
2023/08/26 07:38:49;;;;;;;10.60;5.53;;;;;;;25.07;100.00;95947.16;6188714;23;20011;-81
2023/08/26 07:41:15;;;;;;;12.32;5.63;;;;;;;25.04;100.00;95943.09;6188658;23;20004;-81
2023/08/26 07:43:40;;;;;;;8.95;5.05;;;;;;;25.12;100.00;95944.56;6188316;23;20446;-81
2023/08/26 07:46:09;;;;;;;12.43;5.38;;;;;;;24.72;100.00;95961.13;6212869;23;20344;-81
2023/08/26 07:48:35;;;;;;;9.20;5.35;;;;;;;25.28;100.00;95961.59;6188574;23;20038;-81
2023/08/26 07:51:00;;;;;;;12.35;5.63;;;;;;;25.38;100.00;95958.97;6212697;23;20000;-81
2023/08/26 07:53:26;;;;;;;10.05;5.47;;;;;;;26.29;100.00;95957.78;6213877;23;20007;-82
2023/08/26 07:55:54;;;;;;;11.80;7.20;;;;;;;25.62;100.00;95965.59;6215450;23;20004;-81
2023/08/26 07:58:19;;;;;;;11.05;6.47;;;;;;;25.96;100.00;95956.34;6166265;23;20015;-81
2023/08/26 08:00:45;;;;;;;10.38;5.60;;;;;;;25.80;100.00;95947.38;6190578;23;20015;-82
2023/08/26 08:03:11;;;;;;;10.57;5.25;;;;;;;26.44;100.00;95943.56;6215716;23;20570;-82
2023/08/26 08:05:36;;;;;;;9.10;5.40;;;;;;;26.98;100.00;95943.88;6190242;23;20038;-82
2023/08/26 08:08:03;;;;;;;8.10;4.68;;;;;;;27.68;100.00;95933.25;6190316;23;20333;-87
2023/08/26 08:10:29;;;;;;;10.48;4.70;;;;;;;27.03;100.00;95941.19;6242885;23;20425;-82
2023/08/26 08:12:54;;;;;;;7.90;4.28;;;;;;;26.78;100.00;95935.78;6191193;23;20015;-82
2023/08/26 08:15:20;;;;;;;11.07;4.05;;;;;;;27.26;100.00;95947.13;6190327;23;20008;-82
2023/08/26 08:17:45;;;;;;;7.88;4.70;;;;;;;27.93;100.00;95935.13;6190493;23;20000;-83
2023/08/26 08:20:12;;;;;;;7.18;4.40;;;;;;;27.70;100.00;95931.09;6215204;23;20040;-83
2023/08/26 08:22:41;;;;;;;8.50;4.05;;;;;;;28.54;100.00;95927.75;6214738;23;20012;-83
2023/08/26 08:25:09;;;;;;;8.10;3.75;;;;;;;28.13;100.00;95928.78;6191238;23;20011;-86
2023/08/26 08:27:38;;;;;;;9.15;3.72;;;;;;;28.15;100.00;95926.63;6191018;23;20062;-82
2023/08/26 08:30:06;;;;;;;9.15;4.20;;;;;;;28.45;100.00;95924.06;6190092;23;20008;-81
2023/08/26 08:32:35;;;;;;;9.52;4.63;;;;;;;27.99;100.00;95922.38;6189399;23;20039;-81
2023/08/26 08:35:03;;;;;;;10.02;4.40;;;;;;;27.69;100.00;95918.66;6188135;23;20498;-81
2023/08/26 08:37:29;;;;;;;9.32;4.82;;;;;;;28.65;100.00;95919.31;6187528;23;20104;-81
2023/08/26 08:39:55;;;;;;;15.57;4.60;;;;;;;29.03;100.00;95910.63;6212254;23;20012;-81
2023/08/26 08:42:22;;;;;;;8.55;4.40;;;;;;;28.80;100.00;95906.72;6187288;23;20591;-82
2023/08/26 08:44:48;;;;;;;8.05;3.95;;;;;;;28.78;100.00;95914.34;6211819;23;20027;-81
2023/08/26 08:47:17;;;;;;;8.38;4.20;;;;;;;28.89;100.00;95916.66;6212715;23;20030;-80
2023/08/26 08:49:43;;;;;;;8.98;3.92;;;;;;;29.63;100.00;95908.44;6190134;23;20396;-81
2023/08/26 08:52:19;;;;;;;12.15;4.18;;;;;;;29.91;100.00;95901.31;6188776;23;20062;-81
2023/08/26 08:54:54;;;;;;;9.70;4.75;;;;;;;30.45;100.00;95888.38;6215138;23;20004;-81
2023/08/26 08:57:23;;;;;;;8.80;4.55;;;;;;;29.15;100.00;95904.84;6190878;23;20417;-81
2023/08/26 08:59:49;;;;;;;11.40;4.57;;;;;;;27.67;100.00;95912.75;6191439;23;20008;-81
2023/08/26 09:02:15;;;;;;;7.07;4.00;;;;;;;28.77;100.00;95905.41;6189779;23;20011;-81
2023/08/26 09:04:48;;;;;;;10.40;4.60;;;;;;;29.10;100.00;95913.81;6189563;23;20007;-81
2023/08/26 09:07:17;;;;;;;10.63;4.22;;;;;;;28.57;100.00;95916.38;6214563;23;20099;-82
2023/08/26 09:09:42;;;;;;;8.48;4.63;;;;;;;28.56;100.00;95912.88;6189922;23;20027;-81
2023/08/26 09:12:08;;;;;;;9.30;4.75;;;;;;;27.67;100.00;95909.25;6190181;23;20429;-82
2023/08/26 09:14:34;;;;;;;13.07;5.60;;;;;;;28.25;100.00;95914.94;6190505;23;20059;-81
2023/08/26 09:17:15;;;;;;;8.43;4.50;;;;;;;27.64;100.00;95926.00;6214553;23;20416;-81
2023/08/26 09:19:58;;;;;;;7.78;4.18;;;;;;;28.05;100.00;95926.66;6189541;23;20146;-82
2023/08/26 09:22:31;;;;;;;10.50;4.38;;;;;;;27.60;100.00;95930.31;6214576;23;20007;-82
2023/08/26 09:24:59;;;;;;;11.88;4.55;;;;;;;27.49;100.00;95919.53;6190032;23;20347;-82
2023/08/26 09:27:25;;;;;;;8.95;4.18;;;;;;;27.53;100.00;95913.59;6190309;23;20008;-81
2023/08/26 09:29:51;;;;;;;9.15;4.18;;;;;;;27.25;100.00;95913.13;6241995;23;20053;-81
2023/08/26 09:32:37;;;;;;;10.35;4.43;;;;;;;27.46;100.00;95903.06;6188757;23;20087;-81
2023/08/26 09:35:14;;;;;;;9.02;4.22;;;;;;;28.13;100.00;95895.53;6189928;23;20004;-82
2023/08/26 09:37:41;;;;;;;9.80;4.57;;;;;;;28.45;100.00;95902.41;6214482;23;20313;-81
2023/08/26 09:40:15;;;;;;;8.55;3.83;;;;;;;28.96;100.00;95907.41;6189460;23;20088;-82
2023/08/26 09:42:41;;;;;;;8.23;4.18;;;;;;;29.09;100.00;95912.22;6190005;23;20610;-81
2023/08/26 09:45:13;;;;;;;10.93;4.80;;;;;;;28.22;100.00;95915.50;6189247;23;20011;-82
2023/08/26 09:47:39;;;;;;;6.90;3.80;;;;;;;28.49;100.00;95908.88;6189390;23;20000;-82
2023/08/26 09:50:06;;;;;;;10.07;4.78;;;;;;;28.30;100.00;95914.88;6189149;23;20334;-82
2023/08/26 09:52:58;;;;;;;10.02;4.55;;;;;;;28.49;100.00;95906.16;6188779;23;20000;-82
2023/08/26 09:55:28;;;;;;;8.75;3.60;;;;;;;28.73;100.00;95912.47;6183296;23;20008;-82
2023/08/26 09:57:54;;;;;;;7.55;3.55;;;;;;;28.30;100.00;95895.97;6189143;23;20000;-81
2023/08/26 10:00:26;;;;;;;7.78;3.65;;;;;;;28.51;100.00;95899.38;6213838;23;20004;-82
2023/08/26 10:02:55;;;;;;;9.90;4.40;;;;;;;28.23;100.00;95884.66;6189814;23;20090;-82
2023/08/26 10:05:21;;;;;;;8.77;4.30;;;;;;;28.76;100.00;95881.34;6189066;23;20914;-82
2023/08/26 10:07:49;;;;;;;11.38;4.72;;;;;;;29.00;100.00;95878.72;6188623;23;20000;-82
2023/08/26 10:10:24;;;;;;;9.40;3.67;;;;;;;29.09;100.00;95875.09;6215585;23;20008;-81
2023/08/26 10:12:54;;;;;;;12.45;7.28;;;;;;;28.87;100.00;95880.97;6189800;23;20524;-81
2023/08/26 10:15:23;;;;;;;6.43;4.00;;;;;;;29.28;100.00;95875.19;6189194;23;20004;-82
2023/08/26 10:17:54;;;;;;;7.80;3.42;;;;;;;30.09;100.00;95861.78;6189064;23;20004;-81
2023/08/26 10:20:20;;;;;;;8.32;3.90;;;;;;;29.80;100.00;95867.31;6188989;23;20000;-82
2023/08/26 10:22:46;;;;;;;8.32;3.90;;;;;;;29.96;100.00;95857.06;6189639;23;20015;-82
2023/08/26 10:25:32;;;;;;;9.18;4.63;;;;;;;30.09;100.00;95860.97;6188874;23;20445;-83
2023/08/26 10:28:03;;;;;;;7.82;4.28;;;;;;;31.85;100.00;95857.41;6189309;23;20437;-82
2023/08/26 10:30:30;;;;;;;9.48;4.18;;;;;;;31.02;98.73;95861.16;6213743;23;20046;-82
2023/08/26 10:33:00;;;;;;;7.25;4.07;;;;;;;30.98;99.36;95866.38;6187571;23;20340;-82
2023/08/26 10:35:27;;;;;;;9.95;4.65;;;;;;;31.19;97.12;95870.38;6213992;23;20004;-81
2023/08/26 10:38:14;;;;;;;10.15;5.10;;;;;;;32.06;93.93;95860.53;6213331;23;20007;-82
2023/08/26 10:40:40;;;;;;;7.90;4.30;;;;;;;32.02;83.51;95864.16;6188580;23;20008;-82
2023/08/26 10:43:08;;;;;;;8.63;4.03;;;;;;;32.07;90.02;95864.84;6188453;23;20351;-81
2023/08/26 10:45:43;;;;;;;9.30;3.50;;;;;;;31.92;84.41;95865.97;6238886;23;20383;-82
2023/08/26 10:48:11;;;;;;;8.73;3.95;;;;;;;31.53;80.89;95869.22;6187838;23;20099;-82
2023/08/26 10:50:36;;;;;;;8.27;3.50;;;;;;;32.35;75.61;95857.41;6186717;23;20015;-82
2023/08/26 10:53:19;;;;;;;10.38;3.28;;;;;;;31.24;84.90;95859.41;6213734;23;20004;-82
2023/08/26 10:55:47;;;;;;;;;;;;;;;31.83;76.42;95856.13;6242618;23;20016;-83
2023/08/26 10:58:18;;;;;;;11.70;3.30;;;;;;;32.71;77.73;95848.44;6214227;23;19986;-82
2023/08/26 11:00:49;;;;;;;10.93;3.67;;;;;;;32.81;75.95;95855.53;6187486;23;20004;-83
2023/08/26 11:03:17;;;;;;;10.70;3.92;;;;;;;32.74;72.34;95858.72;6215689;23;20004;-82
2023/08/26 11:05:45;;;;;;;9.95;3.70;;;;;;;32.05;80.15;95852.66;6188225;23;20032;-82
2023/08/26 11:08:17;;;;;;;7.38;3.55;;;;;;;31.85;85.22;95856.59;6190078;23;20038;-88
2023/08/26 11:10:43;;;;;;;7.57;3.00;;;;;;;31.58;83.62;95852.78;6192572;23;20502;-82
2023/08/26 11:13:10;;;;;;;6.30;3.10;;;;;;;31.24;84.26;95856.69;6222471;23;20012;-82
2023/08/26 11:15:41;;;;;;;9.35;3.63;;;;;;;30.70;93.84;95866.28;6189104;23;20623;-81
2023/08/26 11:18:08;;;;;;;7.13;3.65;;;;;;;30.25;90.35;95859.69;6214319;23;20087;-82
2023/08/26 11:20:35;;;;;;;6.55;2.95;;;;;;;30.24;92.41;95856.13;6188344;23;20448;-82
2023/08/26 11:23:05;;;;;;;6.97;3.22;;;;;;;29.52;96.27;95844.59;6212791;23;20027;-82